sensor_id;sensor_type;location;lat;lon;timestamp;pressure;altitude;pressure_sealevel;temperature;humidity
20860;BME280;10590;48.154;11.514;2024-03-06T00:36:53;95514.28;;;5.81;100.00
20860;BME280;10590;48.154;11.514;2024-03-06T00:49:04;95521.03;;;5.73;100.00
20860;BME280;10590;48.154;11.514;2024-03-06T01:01:29;95525.53;;;5.72;100.00
20860;BME280;10590;48.154;11.514;2024-03-06T01:20:11;95522.53;;;5.60;100.00
20860;BME280;10590;48.154;11.514;2024-03-06T01:26:11;95482.03;;;5.41;100.00
20860;BME280;10590;48.154;11.514;2024-03-06T01:45:16;95495.41;;;5.68;100.00
20860;BME280;10590;48.154;11.514;2024-03-06T02:03:54;95487.53;;;5.63;100.00
20860;BME280;10590;48.154;11.514;2024-03-06T03:51:51;95500.97;;;5.05;100.00
20860;BME280;10590;48.154;11.514;2024-03-06T05:12:31;95550.06;;;4.30;100.00
20860;BME280;10590;48.154;11.514;2024-03-06T06:17:07;95567.81;;;4.24;100.00
20860;BME280;10590;48.154;11.514;2024-03-06T06:23:23;95603.88;;;4.44;100.00
20860;BME280;10590;48.154;11.514;2024-03-06T06:30:46;95599.69;;;4.38;100.00
20860;BME280;10590;48.154;11.514;2024-03-06T06:35:42;95640.34;;;4.42;100.00
20860;BME280;10590;48.154;11.514;2024-03-06T06:41:56;95633.91;;;4.14;100.00
20860;BME280;10590;48.154;11.514;2024-03-06T06:47:19;95644.91;;;4.26;100.00
20860;BME280;10590;48.154;11.514;2024-03-06T06:52:55;95630.63;;;4.27;100.00
20860;BME280;10590;48.154;11.514;2024-03-06T06:58:26;95649.38;;;4.36;100.00
20860;BME280;10590;48.154;11.514;2024-03-06T07:03:56;95630.44;;;4.19;100.00
20860;BME280;10590;48.154;11.514;2024-03-06T07:09:19;95616.59;;;3.93;100.00
20860;BME280;10590;48.154;11.514;2024-03-06T07:14:42;95647.88;;;4.14;100.00
20860;BME280;10590;48.154;11.514;2024-03-06T07:20:04;95636.03;;;4.12;100.00
20860;BME280;10590;48.154;11.514;2024-03-06T07:25:31;95652.69;;;4.07;100.00
20860;BME280;10590;48.154;11.514;2024-03-06T07:30:53;95633.00;;;3.84;100.00
20860;BME280;10590;48.154;11.514;2024-03-06T07:36:15;95664.09;;;3.93;100.00
20860;BME280;10590;48.154;11.514;2024-03-06T07:41:53;95646.16;;;3.95;100.00
20860;BME280;10590;48.154;11.514;2024-03-06T07:47:17;95663.63;;;3.86;100.00
20860;BME280;10590;48.154;11.514;2024-03-06T07:52:39;95681.72;;;4.07;100.00
20860;BME280;10590;48.154;11.514;2024-03-06T07:58:03;95685.41;;;4.11;100.00
20860;BME280;10590;48.154;11.514;2024-03-06T08:03:41;95696.19;;;4.20;100.00
20860;BME280;10590;48.154;11.514;2024-03-06T08:09:04;95674.31;;;4.09;100.00
20860;BME280;10590;48.154;11.514;2024-03-06T08:14:28;95706.25;;;4.13;100.00
20860;BME280;10590;48.154;11.514;2024-03-06T08:19:50;95717.38;;;4.05;100.00
20860;BME280;10590;48.154;11.514;2024-03-06T08:25:12;95700.91;;;4.23;100.00
20860;BME280;10590;48.154;11.514;2024-03-06T08:30:35;95694.22;;;3.92;100.00
20860;BME280;10590;48.154;11.514;2024-03-06T08:35:57;95716.63;;;3.99;100.00
20860;BME280;10590;48.154;11.514;2024-03-06T08:41:19;95714.63;;;4.35;100.00
20860;BME280;10590;48.154;11.514;2024-03-06T08:46:42;95712.53;;;4.22;100.00
20860;BME280;10590;48.154;11.514;2024-03-06T08:52:04;95717.69;;;4.53;100.00
20860;BME280;10590;48.154;11.514;2024-03-06T08:57:26;95714.78;;;4.49;100.00
20860;BME280;10590;48.154;11.514;2024-03-06T09:02:50;95734.81;;;4.01;100.00
20860;BME280;10590;48.154;11.514;2024-03-06T09:08:11;95729.16;;;4.28;100.00
20860;BME280;10590;48.154;11.514;2024-03-06T09:13:33;95745.19;;;4.46;100.00
20860;BME280;10590;48.154;11.514;2024-03-06T09:18:56;95748.53;;;4.62;100.00
20860;BME280;10590;48.154;11.514;2024-03-06T09:24:17;95733.13;;;4.74;100.00
20860;BME280;10590;48.154;11.514;2024-03-06T09:29:39;95737.38;;;4.21;100.00
20860;BME280;10590;48.154;11.514;2024-03-06T09:35:02;95747.97;;;4.16;100.00
20860;BME280;10590;48.154;11.514;2024-03-06T09:40:24;95745.59;;;4.14;100.00
20860;BME280;10590;48.154;11.514;2024-03-06T09:45:48;95766.22;;;4.02;100.00
20860;BME280;10590;48.154;11.514;2024-03-06T09:51:11;95773.72;;;4.50;100.00
20860;BME280;10590;48.154;11.514;2024-03-06T09:56:34;95775.53;;;4.54;100.00
20860;BME280;10590;48.154;11.514;2024-03-06T10:01:57;95766.66;;;4.79;100.00
20860;BME280;10590;48.154;11.514;2024-03-06T10:07:20;95775.81;;;4.53;100.00
20860;BME280;10590;48.154;11.514;2024-03-06T10:12:42;95788.41;;;4.66;100.00
20860;BME280;10590;48.154;11.514;2024-03-06T10:18:11;95786.44;;;4.42;100.00
20860;BME280;10590;48.154;11.514;2024-03-06T10:23:37;95783.25;;;4.90;100.00
20860;BME280;10590;48.154;11.514;2024-03-06T10:28:59;95761.84;;;4.86;100.00
20860;BME280;10590;48.154;11.514;2024-03-06T10:34:22;95806.44;;;5.03;100.00
20860;BME280;10590;48.154;11.514;2024-03-06T10:39:47;95789.34;;;4.85;100.00
20860;BME280;10590;48.154;11.514;2024-03-06T10:45:14;95806.97;;;4.56;100.00
20860;BME280;10590;48.154;11.514;2024-03-06T10:50:38;95806.66;;;5.06;100.00
20860;BME280;10590;48.154;11.514;2024-03-06T10:56:04;95809.16;;;5.32;100.00
20860;BME280;10590;48.154;11.514;2024-03-06T11:01:29;95805.25;;;5.19;100.00
20860;BME280;10590;48.154;11.514;2024-03-06T11:06:53;95807.34;;;5.27;100.00
20860;BME280;10590;48.154;11.514;2024-03-06T11:12:33;95810.88;;;5.47;100.00
20860;BME280;10590;48.154;11.514;2024-03-06T11:17:56;95816.38;;;5.55;100.00
20860;BME280;10590;48.154;11.514;2024-03-06T11:23:18;95815.44;;;5.41;100.00
20860;BME280;10590;48.154;11.514;2024-03-06T11:28:42;95819.59;;;5.47;100.00
20860;BME280;10590;48.154;11.514;2024-03-06T11:34:11;95814.25;;;5.18;100.00
20860;BME280;10590;48.154;11.514;2024-03-06T11:39:37;95806.75;;;5.35;100.00
20860;BME280;10590;48.154;11.514;2024-03-06T11:45:12;95808.91;;;4.89;100.00
20860;BME280;10590;48.154;11.514;2024-03-06T11:50:34;95813.38;;;5.33;100.00
20860;BME280;10590;48.154;11.514;2024-03-06T11:55:56;95816.75;;;4.99;100.00
20860;BME280;10590;48.154;11.514;2024-03-06T12:01:20;95824.03;;;5.23;100.00
20860;BME280;10590;48.154;11.514;2024-03-06T12:06:42;95818.41;;;5.63;100.00
20860;BME280;10590;48.154;11.514;2024-03-06T12:12:04;95815.75;;;5.34;100.00
20860;BME280;10590;48.154;11.514;2024-03-06T12:17:28;95829.69;;;5.06;100.00
20860;BME280;10590;48.154;11.514;2024-03-06T12:22:51;95831.03;;;5.42;100.00
20860;BME280;10590;48.154;11.514;2024-03-06T12:28:12;95827.59;;;5.42;100.00
20860;BME280;10590;48.154;11.514;2024-03-06T12:33:35;95822.38;;;5.32;100.00
20860;BME280;10590;48.154;11.514;2024-03-06T12:38:59;95830.91;;;5.58;100.00
20860;BME280;10590;48.154;11.514;2024-03-06T12:44:22;95830.56;;;5.35;100.00
20860;BME280;10590;48.154;11.514;2024-03-06T12:49:45;95834.66;;;5.52;100.00
20860;BME280;10590;48.154;11.514;2024-03-06T12:55:07;95845.25;;;5.12;100.00
20860;BME280;10590;48.154;11.514;2024-03-06T13:00:29;95842.44;;;5.38;100.00
20860;BME280;10590;48.154;11.514;2024-03-06T13:05:52;95842.03;;;5.21;100.00
20860;BME280;10590;48.154;11.514;2024-03-06T13:11:13;95812.13;;;5.25;100.00
20860;BME280;10590;48.154;11.514;2024-03-06T13:16:35;95842.63;;;5.07;100.00
20860;BME280;10590;48.154;11.514;2024-03-06T13:21:58;95823.56;;;5.10;100.00
20860;BME280;10590;48.154;11.514;2024-03-06T13:27:20;95848.38;;;5.20;100.00
20860;BME280;10590;48.154;11.514;2024-03-06T13:32:42;95834.38;;;5.53;100.00
20860;BME280;10590;48.154;11.514;2024-03-06T13:38:07;95837.44;;;4.92;100.00
20860;BME280;10590;48.154;11.514;2024-03-06T13:43:28;95843.94;;;5.10;100.00
20860;BME280;10590;48.154;11.514;2024-03-06T13:48:50;95838.91;;;5.08;100.00
20860;BME280;10590;48.154;11.514;2024-03-06T13:54:13;95814.59;;;5.06;99.74
20860;BME280;10590;48.154;11.514;2024-03-06T13:59:35;95844.56;;;5.36;100.00
20860;BME280;10590;48.154;11.514;2024-03-06T14:04:57;95842.47;;;5.33;97.99
20860;BME280;10590;48.154;11.514;2024-03-06T14:10:21;95852.97;;;5.04;100.00
20860;BME280;10590;48.154;11.514;2024-03-06T14:15:44;95851.28;;;5.23;99.26
20860;BME280;10590;48.154;11.514;2024-03-06T14:21:07;95844.13;;;5.19;99.37
20860;BME280;10590;48.154;11.514;2024-03-06T14:26:31;95843.53;;;5.32;100.00
20860;BME280;10590;48.154;11.514;2024-03-06T14:31:53;95831.50;;;5.10;99.63
20860;BME280;10590;48.154;11.514;2024-03-06T14:37:14;95839.47;;;5.05;97.73
20860;BME280;10590;48.154;11.514;2024-03-06T14:42:37;95854.91;;;5.32;97.59
20860;BME280;10590;48.154;11.514;2024-03-06T14:47:59;95856.94;;;5.46;98.00
20860;BME280;10590;48.154;11.514;2024-03-06T14:53:22;95863.34;;;5.39;97.73
20860;BME280;10590;48.154;11.514;2024-03-06T14:58:46;95871.13;;;5.21;99.40
20860;BME280;10590;48.154;11.514;2024-03-06T15:04:07;95853.94;;;5.18;98.25
20860;BME280;10590;48.154;11.514;2024-03-06T15:09:29;95851.06;;;5.09;96.61
20860;BME280;10590;48.154;11.514;2024-03-06T15:14:53;95877.75;;;5.13;99.33
20860;BME280;10590;48.154;11.514;2024-03-06T15:20:17;95880.50;;;5.42;99.05
20860;BME280;10590;48.154;11.514;2024-03-06T15:25:38;95865.34;;;5.53;96.74
20860;BME280;10590;48.154;11.514;2024-03-06T15:31:02;95880.44;;;5.52;97.51
20860;BME280;10590;48.154;11.514;2024-03-06T15:36:24;95889.91;;;5.19;98.00
20860;BME280;10590;48.154;11.514;2024-03-06T15:41:45;95878.44;;;4.90;100.00
20860;BME280;10590;48.154;11.514;2024-03-06T15:47:08;95889.69;;;5.10;99.38
20860;BME280;10590;48.154;11.514;2024-03-06T15:52:30;95878.16;;;4.91;98.67
20860;BME280;10590;48.154;11.514;2024-03-06T15:57:53;95899.88;;;4.83;98.77
20860;BME280;10590;48.154;11.514;2024-03-06T16:03:17;95898.56;;;4.80;98.57
20860;BME280;10590;48.154;11.514;2024-03-06T16:08:39;95900.63;;;4.94;99.40
20860;BME280;10590;48.154;11.514;2024-03-06T16:14:01;95901.22;;;4.80;99.45
20860;BME280;10590;48.154;11.514;2024-03-06T16:19:24;95913.69;;;4.70;100.00
20860;BME280;10590;48.154;11.514;2024-03-06T16:24:47;95920.06;;;4.59;99.99
20860;BME280;10590;48.154;11.514;2024-03-06T16:30:09;95917.16;;;4.60;100.00
20860;BME280;10590;48.154;11.514;2024-03-06T16:35:32;95915.53;;;4.69;98.91
20860;BME280;10590;48.154;11.514;2024-03-06T16:40:54;95921.63;;;4.60;99.12
20860;BME280;10590;48.154;11.514;2024-03-06T16:46:16;95934.81;;;4.70;98.69
20860;BME280;10590;48.154;11.514;2024-03-06T16:51:39;95933.25;;;4.69;99.17
20860;BME280;10590;48.154;11.514;2024-03-06T16:57:01;95942.50;;;4.66;99.97
20860;BME280;10590;48.154;11.514;2024-03-06T17:02:23;95942.53;;;4.51;100.00
20860;BME280;10590;48.154;11.514;2024-03-06T17:07:46;95954.97;;;4.51;100.00
20860;BME280;10590;48.154;11.514;2024-03-06T17:13:08;95952.88;;;4.42;100.00
20860;BME280;10590;48.154;11.514;2024-03-06T17:18:30;95965.28;;;4.37;100.00
20860;BME280;10590;48.154;11.514;2024-03-06T17:23:52;95965.56;;;4.40;100.00
20860;BME280;10590;48.154;11.514;2024-03-06T17:29:14;95959.72;;;4.48;100.00
20860;BME280;10590;48.154;11.514;2024-03-06T17:34:36;95975.59;;;4.28;100.00
20860;BME280;10590;48.154;11.514;2024-03-06T17:39:59;95977.19;;;4.34;100.00
20860;BME280;10590;48.154;11.514;2024-03-06T17:45:21;95979.81;;;4.44;100.00
20860;BME280;10590;48.154;11.514;2024-03-06T17:50:43;95987.19;;;4.27;100.00
20860;BME280;10590;48.154;11.514;2024-03-06T17:56:07;95978.75;;;4.25;100.00
20860;BME280;10590;48.154;11.514;2024-03-06T18:01:28;95983.50;;;4.33;100.00
20860;BME280;10590;48.154;11.514;2024-03-06T18:06:50;95991.97;;;4.40;100.00
20860;BME280;10590;48.154;11.514;2024-03-06T18:12:13;95971.13;;;4.34;100.00
20860;BME280;10590;48.154;11.514;2024-03-06T18:17:35;95995.66;;;4.50;100.00
20860;BME280;10590;48.154;11.514;2024-03-06T18:22:57;96002.81;;;4.44;100.00
20860;BME280;10590;48.154;11.514;2024-03-06T18:28:20;96007.03;;;4.35;100.00
20860;BME280;10590;48.154;11.514;2024-03-06T18:33:42;96008.34;;;4.42;100.00
20860;BME280;10590;48.154;11.514;2024-03-06T18:39:06;95998.81;;;4.31;100.00
20860;BME280;10590;48.154;11.514;2024-03-06T18:44:32;95994.31;;;4.32;100.00
20860;BME280;10590;48.154;11.514;2024-03-06T18:49:54;96001.47;;;4.16;100.00
20860;BME280;10590;48.154;11.514;2024-03-06T18:55:16;95987.22;;;3.97;100.00
20860;BME280;10590;48.154;11.514;2024-03-06T19:00:39;96016.00;;;4.13;100.00
20860;BME280;10590;48.154;11.514;2024-03-06T19:06:01;96012.84;;;4.11;100.00
20860;BME280;10590;48.154;11.514;2024-03-06T19:11:23;96017.84;;;3.98;100.00
20860;BME280;10590;48.154;11.514;2024-03-06T19:16:46;96029.72;;;4.15;100.00
20860;BME280;10590;48.154;11.514;2024-03-06T19:22:08;96020.75;;;4.22;100.00
20860;BME280;10590;48.154;11.514;2024-03-06T19:27:30;96026.81;;;4.17;100.00
20860;BME280;10590;48.154;11.514;2024-03-06T19:32:54;96023.66;;;4.10;100.00
20860;BME280;10590;48.154;11.514;2024-03-06T19:38:16;96032.09;;;4.02;100.00
20860;BME280;10590;48.154;11.514;2024-03-06T19:43:38;96042.38;;;3.93;100.00
20860;BME280;10590;48.154;11.514;2024-03-06T19:49:01;96022.03;;;3.78;100.00
20860;BME280;10590;48.154;11.514;2024-03-06T19:54:23;96033.41;;;3.79;100.00
20860;BME280;10590;48.154;11.514;2024-03-06T19:59:48;96038.94;;;3.77;100.00
20860;BME280;10590;48.154;11.514;2024-03-06T20:05:11;96033.38;;;3.69;100.00
20860;BME280;10590;48.154;11.514;2024-03-06T20:10:33;96021.00;;;3.79;100.00
20860;BME280;10590;48.154;11.514;2024-03-06T20:15:56;96043.41;;;3.77;100.00
20860;BME280;10590;48.154;11.514;2024-03-06T20:21:20;96023.63;;;3.74;100.00
20860;BME280;10590;48.154;11.514;2024-03-06T20:26:42;96032.03;;;3.56;100.00
20860;BME280;10590;48.154;11.514;2024-03-06T20:32:04;96022.25;;;3.51;100.00
20860;BME280;10590;48.154;11.514;2024-03-06T20:37:27;96040.75;;;3.57;100.00
20860;BME280;10590;48.154;11.514;2024-03-06T20:42:49;96037.56;;;3.49;100.00
20860;BME280;10590;48.154;11.514;2024-03-06T20:48:11;96055.22;;;3.49;100.00
20860;BME280;10590;48.154;11.514;2024-03-06T20:53:34;96041.97;;;3.39;100.00
20860;BME280;10590;48.154;11.514;2024-03-06T20:58:56;96041.94;;;3.29;100.00
20860;BME280;10590;48.154;11.514;2024-03-06T21:04:18;96042.44;;;3.20;100.00
20860;BME280;10590;48.154;11.514;2024-03-06T21:09:41;96037.19;;;3.26;100.00
20860;BME280;10590;48.154;11.514;2024-03-06T21:15:03;96012.13;;;3.28;100.00
20860;BME280;10590;48.154;11.514;2024-03-06T21:20:26;96035.09;;;3.33;100.00
20860;BME280;10590;48.154;11.514;2024-03-06T21:25:49;96040.69;;;3.46;100.00
20860;BME280;10590;48.154;11.514;2024-03-06T21:31:11;96010.84;;;3.31;100.00
20860;BME280;10590;48.154;11.514;2024-03-06T21:36:32;96026.91;;;3.29;100.00
20860;BME280;10590;48.154;11.514;2024-03-06T21:41:56;96030.09;;;3.31;100.00
20860;BME280;10590;48.154;11.514;2024-03-06T21:47:17;96032.44;;;3.23;100.00
20860;BME280;10590;48.154;11.514;2024-03-06T21:52:39;96041.88;;;3.13;100.00
20860;BME280;10590;48.154;11.514;2024-03-06T21:58:02;96038.25;;;3.25;100.00
20860;BME280;10590;48.154;11.514;2024-03-06T22:03:25;96037.63;;;3.07;100.00
20860;BME280;10590;48.154;11.514;2024-03-06T22:08:47;96033.19;;;3.18;100.00
20860;BME280;10590;48.154;11.514;2024-03-06T22:14:10;96019.19;;;3.07;100.00
20860;BME280;10590;48.154;11.514;2024-03-06T22:19:32;96027.09;;;3.07;100.00
20860;BME280;10590;48.154;11.514;2024-03-06T22:24:54;96032.38;;;3.12;100.00
20860;BME280;10590;48.154;11.514;2024-03-06T22:30:17;96019.41;;;2.96;100.00
20860;BME280;10590;48.154;11.514;2024-03-06T22:35:39;96002.22;;;2.88;100.00
20860;BME280;10590;48.154;11.514;2024-03-06T22:41:01;96046.38;;;3.13;100.00
20860;BME280;10590;48.154;11.514;2024-03-06T22:46:25;96049.25;;;3.11;100.00
20860;BME280;10590;48.154;11.514;2024-03-06T22:51:47;96031.63;;;3.17;100.00
20860;BME280;10590;48.154;11.514;2024-03-06T22:57:08;96048.00;;;3.24;100.00
20860;BME280;10590;48.154;11.514;2024-03-06T23:02:31;96037.69;;;3.17;100.00
20860;BME280;10590;48.154;11.514;2024-03-06T23:07:53;96036.69;;;3.34;100.00
20860;BME280;10590;48.154;11.514;2024-03-06T23:13:15;96039.53;;;3.17;100.00
20860;BME280;10590;48.154;11.514;2024-03-06T23:18:39;96032.69;;;3.26;100.00
20860;BME280;10590;48.154;11.514;2024-03-06T23:24:01;96029.25;;;3.20;100.00
20860;BME280;10590;48.154;11.514;2024-03-06T23:29:24;96036.69;;;3.39;100.00
20860;BME280;10590;48.154;11.514;2024-03-06T23:34:47;96043.81;;;3.33;100.00
20860;BME280;10590;48.154;11.514;2024-03-06T23:40:10;96028.97;;;3.17;100.00
20860;BME280;10590;48.154;11.514;2024-03-06T23:45:34;96033.81;;;3.45;100.00
20860;BME280;10590;48.154;11.514;2024-03-06T23:50:57;96017.16;;;3.35;100.00
20860;BME280;10590;48.154;11.514;2024-03-06T23:56:18;96046.28;;;3.55;100.00
